sensor_id;sensor_type;location;lat;lon;timestamp;pressure;altitude;pressure_sealevel;temperature;humidity
72961;BME280;61141;46.204;19.774;2023-06-26T00:00:48;100325.44;;;18.72;96.96
72961;BME280;61141;46.204;19.774;2023-06-26T00:03:51;100309.44;;;18.60;96.96
72961;BME280;61141;46.204;19.774;2023-06-26T00:06:54;100325.09;;;18.70;96.15
72961;BME280;61141;46.204;19.774;2023-06-26T00:09:57;100309.50;;;18.57;95.72
72961;BME280;61141;46.204;19.774;2023-06-26T00:13:01;100289.47;;;18.46;95.88
72961;BME280;61141;46.204;19.774;2023-06-26T00:16:05;100315.84;;;18.57;95.98
72961;BME280;61141;46.204;19.774;2023-06-26T00:19:08;100325.84;;;18.51;96.42
72961;BME280;61141;46.204;19.774;2023-06-26T00:22:11;100320.03;;;18.42;96.29
72961;BME280;61141;46.204;19.774;2023-06-26T00:25:15;100321.16;;;18.45;96.55
72961;BME280;61141;46.204;19.774;2023-06-26T00:28:18;100305.09;;;18.36;96.41
72961;BME280;61141;46.204;19.774;2023-06-26T00:31:21;100320.50;;;18.37;96.89
72961;BME280;61141;46.204;19.774;2023-06-26T00:34:24;100324.22;;;18.31;96.83
72961;BME280;61141;46.204;19.774;2023-06-26T00:37:26;100321.13;;;18.25;96.83
72961;BME280;61141;46.204;19.774;2023-06-26T00:40:30;100320.34;;;18.25;97.20
72961;BME280;61141;46.204;19.774;2023-06-26T00:43:33;100320.09;;;18.15;96.96
72961;BME280;61141;46.204;19.774;2023-06-26T00:46:36;100317.75;;;18.14;97.54
72961;BME280;61141;46.204;19.774;2023-06-26T00:49:38;100320.84;;;18.19;97.55
72961;BME280;61141;46.204;19.774;2023-06-26T00:52:42;100296.91;;;18.06;97.28
72961;BME280;61141;46.204;19.774;2023-06-26T00:55:45;100308.22;;;18.15;98.28
72961;BME280;61141;46.204;19.774;2023-06-26T00:58:48;100305.88;;;18.13;98.40
72961;BME280;61141;46.204;19.774;2023-06-26T01:01:51;100288.44;;;18.13;98.20
72961;BME280;61141;46.204;19.774;2023-06-26T01:04:54;100301.41;;;18.19;98.23
72961;BME280;61141;46.204;19.774;2023-06-26T01:07:57;100302.88;;;18.28;98.33
72961;BME280;61141;46.204;19.774;2023-06-26T01:11:01;100308.03;;;18.26;98.68
72961;BME280;61141;46.204;19.774;2023-06-26T01:14:05;100286.94;;;18.08;99.37
72961;BME280;61141;46.204;19.774;2023-06-26T01:17:09;100308.94;;;18.19;99.55
72961;BME280;61141;46.204;19.774;2023-06-26T01:20:17;100269.09;;;17.86;99.90
72961;BME280;61141;46.204;19.774;2023-06-26T01:23:30;100286.53;;;18.10;100.00
72961;BME280;61141;46.204;19.774;2023-06-26T01:26:35;100308.94;;;18.19;99.98
72961;BME280;61141;46.204;19.774;2023-06-26T01:29:40;100291.53;;;18.18;100.00
72961;BME280;61141;46.204;19.774;2023-06-26T01:32:44;100284.94;;;18.09;100.00
72961;BME280;61141;46.204;19.774;2023-06-26T01:35:48;100271.75;;;17.93;100.00
72961;BME280;61141;46.204;19.774;2023-06-26T01:38:51;100297.31;;;18.04;100.00
72961;BME280;61141;46.204;19.774;2023-06-26T01:41:54;100294.84;;;18.10;100.00
72961;BME280;61141;46.204;19.774;2023-06-26T01:44:57;100280.97;;;18.10;99.76
72961;BME280;61141;46.204;19.774;2023-06-26T01:48:01;100279.00;;;18.10;99.44
72961;BME280;61141;46.204;19.774;2023-06-26T01:51:05;100277.09;;;18.04;99.06
72961;BME280;61141;46.204;19.774;2023-06-26T01:54:13;100293.69;;;18.07;99.34
72961;BME280;61141;46.204;19.774;2023-06-26T01:57:17;100266.06;;;17.77;99.74
72961;BME280;61141;46.204;19.774;2023-06-26T02:00:23;100271.59;;;17.77;100.00
72961;BME280;61141;46.204;19.774;2023-06-26T02:03:26;100276.19;;;17.87;100.00
72961;BME280;61141;46.204;19.774;2023-06-26T02:06:29;100262.69;;;17.66;100.00
72961;BME280;61141;46.204;19.774;2023-06-26T02:09:34;100269.72;;;17.71;100.00
72961;BME280;61141;46.204;19.774;2023-06-26T02:12:37;100265.44;;;17.66;100.00
72961;BME280;61141;46.204;19.774;2023-06-26T02:15:40;100273.19;;;17.78;100.00
72961;BME280;61141;46.204;19.774;2023-06-26T02:18:43;100254.09;;;17.57;100.00
72961;BME280;61141;46.204;19.774;2023-06-26T02:21:46;100269.28;;;17.76;100.00
72961;BME280;61141;46.204;19.774;2023-06-26T02:24:49;100279.88;;;17.81;99.75
72961;BME280;61141;46.204;19.774;2023-06-26T02:27:51;100262.94;;;17.75;99.22
72961;BME280;61141;46.204;19.774;2023-06-26T02:30:54;100264.56;;;17.73;98.77
72961;BME280;61141;46.204;19.774;2023-06-26T02:33:59;100280.87;;;17.67;99.53
72961;BME280;61141;46.204;19.774;2023-06-26T02:37:02;100272.69;;;17.56;98.96
72961;BME280;61141;46.204;19.774;2023-06-26T02:40:05;100261.41;;;17.44;98.29
72961;BME280;61141;46.204;19.774;2023-06-26T02:43:10;100276.69;;;17.52;98.49
72961;BME280;61141;46.204;19.774;2023-06-26T02:46:13;100260.25;;;17.41;97.99
72961;BME280;61141;46.204;19.774;2023-06-26T02:49:16;100271.31;;;17.41;98.36
72961;BME280;61141;46.204;19.774;2023-06-26T02:52:21;100291.84;;;17.44;98.36
72961;BME280;61141;46.204;19.774;2023-06-26T02:55:25;100293.38;;;17.48;99.02
72961;BME280;61141;46.204;19.774;2023-06-26T02:58:28;100289.44;;;17.46;98.29
72961;BME280;61141;46.204;19.774;2023-06-26T03:01:32;100287.25;;;17.34;99.13
72961;BME280;61141;46.204;19.774;2023-06-26T03:04:35;100272.38;;;17.21;98.86
72961;BME280;61141;46.204;19.774;2023-06-26T03:07:39;100294.13;;;17.22;98.75
72961;BME280;61141;46.204;19.774;2023-06-26T03:10:42;100283.41;;;17.24;98.71
72961;BME280;61141;46.204;19.774;2023-06-26T03:13:46;100291.31;;;17.26;98.43
72961;BME280;61141;46.204;19.774;2023-06-26T03:16:49;100266.19;;;17.10;98.58
72961;BME280;61141;46.204;19.774;2023-06-26T03:19:55;100271.75;;;17.10;98.14
72961;BME280;61141;46.204;19.774;2023-06-26T03:22:58;100281.72;;;17.34;98.40
72961;BME280;61141;46.204;19.774;2023-06-26T03:26:02;100289.19;;;17.37;98.19
72961;BME280;61141;46.204;19.774;2023-06-26T03:29:05;100294.25;;;17.42;98.04
72961;BME280;61141;46.204;19.774;2023-06-26T03:32:09;100295.09;;;17.39;97.80
72961;BME280;61141;46.204;19.774;2023-06-26T03:35:11;100291.84;;;17.44;97.93
72961;BME280;61141;46.204;19.774;2023-06-26T03:38:15;100288.63;;;17.49;97.53
72961;BME280;61141;46.204;19.774;2023-06-26T03:41:18;100262.25;;;17.37;97.52
72961;BME280;61141;46.204;19.774;2023-06-26T03:44:22;100267.41;;;17.39;97.07
72961;BME280;61141;46.204;19.774;2023-06-26T03:47:25;100290.09;;;17.57;96.88
72961;BME280;61141;46.204;19.774;2023-06-26T03:50:28;100280.50;;;17.65;97.09
72961;BME280;61141;46.204;19.774;2023-06-26T03:53:32;100292.16;;;17.80;96.88
72961;BME280;61141;46.204;19.774;2023-06-26T03:56:35;100280.94;;;17.87;95.95
72961;BME280;61141;46.204;19.774;2023-06-26T03:59:40;100298.50;;;18.03;96.22
72961;BME280;61141;46.204;19.774;2023-06-26T04:02:43;100300.69;;;18.15;96.85
72961;BME280;61141;46.204;19.774;2023-06-26T04:05:46;100301.03;;;18.17;96.57
72961;BME280;61141;46.204;19.774;2023-06-26T04:08:49;100299.59;;;18.33;95.81
72961;BME280;61141;46.204;19.774;2023-06-26T04:11:52;100302.38;;;18.33;95.17
72961;BME280;61141;46.204;19.774;2023-06-26T04:14:54;100306.66;;;18.60;95.02
72961;BME280;61141;46.204;19.774;2023-06-26T04:17:57;100300.34;;;18.80;93.94
72961;BME280;61141;46.204;19.774;2023-06-26T04:21:08;100314.66;;;18.98;93.79
72961;BME280;61141;46.204;19.774;2023-06-26T04:24:11;100307.97;;;19.15;93.66
72961;BME280;61141;46.204;19.774;2023-06-26T04:27:17;100308.41;;;19.13;94.02
72961;BME280;61141;46.204;19.774;2023-06-26T04:30:20;100312.16;;;19.43;93.05
72961;BME280;61141;46.204;19.774;2023-06-26T04:33:24;100310.84;;;19.67;92.27
72961;BME280;61141;46.204;19.774;2023-06-26T04:36:28;100321.47;;;19.88;91.75
72961;BME280;61141;46.204;19.774;2023-06-26T04:39:31;100310.88;;;19.99;91.34
72961;BME280;61141;46.204;19.774;2023-06-26T04:42:34;100314.72;;;20.21;90.64
72961;BME280;61141;46.204;19.774;2023-06-26T04:45:37;100309.84;;;20.25;89.97
72961;BME280;61141;46.204;19.774;2023-06-26T04:48:40;100317.84;;;20.39;90.52
72961;BME280;61141;46.204;19.774;2023-06-26T04:51:42;100317.97;;;20.65;88.37
72961;BME280;61141;46.204;19.774;2023-06-26T04:54:45;100319.06;;;20.55;88.91
72961;BME280;61141;46.204;19.774;2023-06-26T04:57:48;100314.47;;;21.05;86.24
72961;BME280;61141;46.204;19.774;2023-06-26T05:00:51;100313.09;;;21.26;85.42
72961;BME280;61141;46.204;19.774;2023-06-26T05:03:54;100316.59;;;21.43;86.37
72961;BME280;61141;46.204;19.774;2023-06-26T05:06:57;100318.28;;;21.53;84.66
72961;BME280;61141;46.204;19.774;2023-06-26T05:10:00;100316.03;;;21.60;85.46
72961;BME280;61141;46.204;19.774;2023-06-26T05:13:03;100319.97;;;21.88;84.95
72961;BME280;61141;46.204;19.774;2023-06-26T05:16:05;100310.69;;;22.04;83.51
72961;BME280;61141;46.204;19.774;2023-06-26T05:19:10;100328.69;;;22.03;82.24
72961;BME280;61141;46.204;19.774;2023-06-26T05:22:13;100319.94;;;22.26;81.64
72961;BME280;61141;46.204;19.774;2023-06-26T05:25:18;100320.44;;;22.12;81.04
72961;BME280;61141;46.204;19.774;2023-06-26T05:28:24;100324.78;;;21.88;81.51
72961;BME280;61141;46.204;19.774;2023-06-26T05:31:27;100322.03;;;21.46;82.66
72961;BME280;61141;46.204;19.774;2023-06-26T05:34:31;100325.41;;;21.54;83.33
72961;BME280;61141;46.204;19.774;2023-06-26T05:37:36;100325.94;;;21.49;82.68
72961;BME280;61141;46.204;19.774;2023-06-26T05:40:39;100335.59;;;21.73;80.76
72961;BME280;61141;46.204;19.774;2023-06-26T05:43:43;100340.94;;;21.93;79.29
72961;BME280;61141;46.204;19.774;2023-06-26T05:46:46;100333.78;;;22.30;78.21
72961;BME280;61141;46.204;19.774;2023-06-26T05:49:49;100340.19;;;22.17;78.48
72961;BME280;61141;46.204;19.774;2023-06-26T05:52:52;100339.47;;;22.26;78.98
72961;BME280;61141;46.204;19.774;2023-06-26T05:55:55;100338.25;;;22.27;78.99
72961;BME280;61141;46.204;19.774;2023-06-26T05:58:58;100339.22;;;22.46;77.80
72961;BME280;61141;46.204;19.774;2023-06-26T06:02:01;100339.97;;;22.59;77.38
72961;BME280;61141;46.204;19.774;2023-06-26T06:05:05;100335.44;;;22.87;75.62
72961;BME280;61141;46.204;19.774;2023-06-26T06:08:08;100334.59;;;23.20;73.73
72961;BME280;61141;46.204;19.774;2023-06-26T06:11:11;100334.59;;;23.42;72.82
72961;BME280;61141;46.204;19.774;2023-06-26T06:14:14;100328.22;;;23.63;70.29
72961;BME280;61141;46.204;19.774;2023-06-26T06:17:18;100329.50;;;23.71;66.66
72961;BME280;61141;46.204;19.774;2023-06-26T06:20:20;100334.19;;;23.09;68.28
72961;BME280;61141;46.204;19.774;2023-06-26T06:23:23;100329.38;;;23.84;67.42
72961;BME280;61141;46.204;19.774;2023-06-26T06:26:26;100335.91;;;23.50;67.87
72961;BME280;61141;46.204;19.774;2023-06-26T06:29:29;100338.94;;;24.05;65.90
72961;BME280;61141;46.204;19.774;2023-06-26T06:32:32;100336.72;;;23.90;64.10
72961;BME280;61141;46.204;19.774;2023-06-26T06:35:35;100339.41;;;24.52;64.17
72961;BME280;61141;46.204;19.774;2023-06-26T06:38:37;100334.28;;;24.69;64.18
72961;BME280;61141;46.204;19.774;2023-06-26T06:41:40;100340.88;;;25.02;62.44
72961;BME280;61141;46.204;19.774;2023-06-26T06:44:43;100332.59;;;24.89;63.29
72961;BME280;61141;46.204;19.774;2023-06-26T06:47:46;100335.41;;;24.98;62.77
72961;BME280;61141;46.204;19.774;2023-06-26T06:50:49;100335.56;;;24.95;62.06
72961;BME280;61141;46.204;19.774;2023-06-26T06:53:52;100329.75;;;25.26;59.94
72961;BME280;61141;46.204;19.774;2023-06-26T06:56:54;100330.25;;;25.24;60.64
72961;BME280;61141;46.204;19.774;2023-06-26T06:59:57;100326.03;;;25.20;61.67
72961;BME280;61141;46.204;19.774;2023-06-26T07:03:01;100326.19;;;25.25;60.07
72961;BME280;61141;46.204;19.774;2023-06-26T07:06:04;100324.94;;;25.26;58.64
72961;BME280;61141;46.204;19.774;2023-06-26T07:09:06;100329.88;;;25.49;58.11
72961;BME280;61141;46.204;19.774;2023-06-26T07:12:09;100330.72;;;25.83;57.04
72961;BME280;61141;46.204;19.774;2023-06-26T07:15:12;100330.16;;;26.02;55.96
72961;BME280;61141;46.204;19.774;2023-06-26T07:18:15;100326.44;;;25.96;56.91
72961;BME280;61141;46.204;19.774;2023-06-26T07:21:18;100325.63;;;26.05;55.57
72961;BME280;61141;46.204;19.774;2023-06-26T07:24:22;100324.16;;;25.86;56.41
72961;BME280;61141;46.204;19.774;2023-06-26T07:27:24;100317.81;;;25.76;55.83
72961;BME280;61141;46.204;19.774;2023-06-26T07:30:27;100330.44;;;26.04;56.17
72961;BME280;61141;46.204;19.774;2023-06-26T07:33:30;100323.16;;;26.54;55.06
72961;BME280;61141;46.204;19.774;2023-06-26T07:36:33;100328.06;;;26.92;54.13
72961;BME280;61141;46.204;19.774;2023-06-26T07:39:36;100318.47;;;27.13;53.19
72961;BME280;61141;46.204;19.774;2023-06-26T07:42:39;100323.12;;;27.16;48.53
72961;BME280;61141;46.204;19.774;2023-06-26T07:45:42;100319.66;;;27.21;49.96
72961;BME280;61141;46.204;19.774;2023-06-26T07:48:45;100313.66;;;27.28;51.24
72961;BME280;61141;46.204;19.774;2023-06-26T07:51:48;100321.50;;;27.54;51.17
72961;BME280;61141;46.204;19.774;2023-06-26T07:54:51;100314.63;;;27.55;51.72
72961;BME280;61141;46.204;19.774;2023-06-26T07:57:54;100316.75;;;27.74;49.34
72961;BME280;61141;46.204;19.774;2023-06-26T08:00:57;100307.63;;;27.35;50.21
72961;BME280;61141;46.204;19.774;2023-06-26T08:04:00;100315.50;;;27.61;49.73
72961;BME280;61141;46.204;19.774;2023-06-26T08:07:03;100310.59;;;27.76;49.44
72961;BME280;61141;46.204;19.774;2023-06-26T08:10:07;100309.53;;;27.88;49.71
72961;BME280;61141;46.204;19.774;2023-06-26T08:13:09;100313.75;;;28.13;49.00
72961;BME280;61141;46.204;19.774;2023-06-26T08:16:13;100321.13;;;28.25;48.91
72961;BME280;61141;46.204;19.774;2023-06-26T08:19:16;100313.06;;;27.54;49.59
72961;BME280;61141;46.204;19.774;2023-06-26T08:22:19;100326.09;;;28.15;49.00
72961;BME280;61141;46.204;19.774;2023-06-26T08:25:22;100324.53;;;28.14;49.00
72961;BME280;61141;46.204;19.774;2023-06-26T08:28:25;100318.37;;;28.30;46.71
72961;BME280;61141;46.204;19.774;2023-06-26T08:31:27;100313.47;;;27.96;47.24
72961;BME280;61141;46.204;19.774;2023-06-26T08:34:30;100329.41;;;28.69;47.40
72961;BME280;61141;46.204;19.774;2023-06-26T08:37:33;100322.66;;;28.46;46.34
72961;BME280;61141;46.204;19.774;2023-06-26T08:40:36;100319.50;;;28.79;45.27
72961;BME280;61141;46.204;19.774;2023-06-26T08:43:40;100316.97;;;28.40;45.68
72961;BME280;61141;46.204;19.774;2023-06-26T08:46:43;100312.44;;;28.89;44.99
72961;BME280;61141;46.204;19.774;2023-06-26T08:49:55;100321.31;;;29.02;43.80
72961;BME280;61141;46.204;19.774;2023-06-26T08:53:06;100315.09;;;28.98;45.54
72961;BME280;61141;46.204;19.774;2023-06-26T08:56:13;100315.78;;;29.39;44.75
72961;BME280;61141;46.204;19.774;2023-06-26T08:59:18;100319.13;;;29.37;45.68
72961;BME280;61141;46.204;19.774;2023-06-26T09:02:20;100310.97;;;29.19;43.73
72961;BME280;61141;46.204;19.774;2023-06-26T09:05:25;100306.22;;;29.05;43.15
72961;BME280;61141;46.204;19.774;2023-06-26T09:08:29;100306.91;;;28.74;40.70
72961;BME280;61141;46.204;19.774;2023-06-26T09:11:32;100307.94;;;29.23;39.97
72961;BME280;61141;46.204;19.774;2023-06-26T09:14:37;100309.06;;;28.85;40.88
72961;BME280;61141;46.204;19.774;2023-06-26T09:17:42;100304.66;;;29.04;40.07
72961;BME280;61141;46.204;19.774;2023-06-26T09:20:45;100303.44;;;29.36;38.66
72961;BME280;61141;46.204;19.774;2023-06-26T09:23:49;100304.41;;;29.85;39.18
72961;BME280;61141;46.204;19.774;2023-06-26T09:26:52;100304.78;;;29.72;40.15
72961;BME280;61141;46.204;19.774;2023-06-26T09:29:56;100290.56;;;30.35;39.19
72961;BME280;61141;46.204;19.774;2023-06-26T09:33:23;100288.37;;;30.13;37.86
72961;BME280;61141;46.204;19.774;2023-06-26T09:36:29;100292.84;;;29.88;38.47
72961;BME280;61141;46.204;19.774;2023-06-26T09:39:39;100288.47;;;29.87;38.24
72961;BME280;61141;46.204;19.774;2023-06-26T09:42:42;100280.22;;;30.26;38.57
72961;BME280;61141;46.204;19.774;2023-06-26T09:45:44;100284.03;;;29.44;38.71
72961;BME280;61141;46.204;19.774;2023-06-26T09:48:48;100280.72;;;28.94;39.97
72961;BME280;61141;46.204;19.774;2023-06-26T09:51:50;100284.28;;;28.69;40.78
72961;BME280;61141;46.204;19.774;2023-06-26T09:55:09;100277.22;;;29.61;39.68
72961;BME280;61141;46.204;19.774;2023-06-26T09:58:12;100278.41;;;29.81;38.64
72961;BME280;61141;46.204;19.774;2023-06-26T10:01:20;100272.84;;;29.92;35.91
72961;BME280;61141;46.204;19.774;2023-06-26T10:04:23;100275.34;;;30.26;35.97
72961;BME280;61141;46.204;19.774;2023-06-26T10:07:26;100270.13;;;30.14;36.68
72961;BME280;61141;46.204;19.774;2023-06-26T10:10:31;100250.00;;;30.43;36.12
72961;BME280;61141;46.204;19.774;2023-06-26T10:13:38;100259.03;;;30.05;34.19
72961;BME280;61141;46.204;19.774;2023-06-26T10:16:44;100261.13;;;29.73;36.60
72961;BME280;61141;46.204;19.774;2023-06-26T10:19:49;100267.81;;;29.76;37.64
72961;BME280;61141;46.204;19.774;2023-06-26T10:22:55;100256.00;;;29.14;39.47
72961;BME280;61141;46.204;19.774;2023-06-26T10:26:00;100258.44;;;28.76;40.42
72961;BME280;61141;46.204;19.774;2023-06-26T10:29:06;100257.25;;;28.82;38.54
72961;BME280;61141;46.204;19.774;2023-06-26T10:32:12;100255.59;;;28.96;38.01
72961;BME280;61141;46.204;19.774;2023-06-26T10:35:16;100242.06;;;29.31;38.62
72961;BME280;61141;46.204;19.774;2023-06-26T10:38:19;100246.16;;;29.98;36.97
72961;BME280;61141;46.204;19.774;2023-06-26T10:41:22;100237.66;;;30.52;36.14
72961;BME280;61141;46.204;19.774;2023-06-26T10:44:25;100229.84;;;31.00;35.31
72961;BME280;61141;46.204;19.774;2023-06-26T10:47:32;100238.28;;;30.19;35.61
72961;BME280;61141;46.204;19.774;2023-06-26T10:50:35;100243.31;;;29.93;35.92
72961;BME280;61141;46.204;19.774;2023-06-26T10:53:40;100241.63;;;30.17;36.71
72961;BME280;61141;46.204;19.774;2023-06-26T10:56:48;100233.84;;;30.60;35.23
72961;BME280;61141;46.204;19.774;2023-06-26T11:00:08;100236.84;;;29.87;36.21
72961;BME280;61141;46.204;19.774;2023-06-26T11:03:29;100242.22;;;28.91;35.82
72961;BME280;61141;46.204;19.774;2023-06-26T11:06:35;100243.31;;;29.93;33.02
72961;BME280;61141;46.204;19.774;2023-06-26T11:10:00;100249.59;;;30.89;32.09
72961;BME280;61141;46.204;19.774;2023-06-26T11:13:04;100234.38;;;30.59;31.78
72961;BME280;61141;46.204;19.774;2023-06-26T11:16:08;100236.63;;;30.44;34.81
72961;BME280;61141;46.204;19.774;2023-06-26T11:19:11;100238.62;;;29.84;35.64
72961;BME280;61141;46.204;19.774;2023-06-26T11:22:15;100237.69;;;29.61;36.46
72961;BME280;61141;46.204;19.774;2023-06-26T11:25:19;100237.37;;;29.54;35.29
72961;BME280;61141;46.204;19.774;2023-06-26T11:28:22;100234.38;;;29.63;33.68
72961;BME280;61141;46.204;19.774;2023-06-26T11:31:26;100220.94;;;30.37;31.20
72961;BME280;61141;46.204;19.774;2023-06-26T11:34:30;100214.34;;;30.79;32.84
72961;BME280;61141;46.204;19.774;2023-06-26T11:37:33;100216.97;;;31.32;32.13
72961;BME280;61141;46.204;19.774;2023-06-26T11:40:36;100227.03;;;31.61;31.57
72961;BME280;61141;46.204;19.774;2023-06-26T11:43:40;100224.06;;;30.50;33.18
72961;BME280;61141;46.204;19.774;2023-06-26T11:46:43;100202.31;;;31.23;32.42
72961;BME280;61141;46.204;19.774;2023-06-26T11:49:48;100211.81;;;31.42;31.17
72961;BME280;61141;46.204;19.774;2023-06-26T11:52:55;100214.66;;;31.42;31.69
72961;BME280;61141;46.204;19.774;2023-06-26T11:55:58;100211.97;;;31.99;30.18
72961;BME280;61141;46.204;19.774;2023-06-26T11:59:05;100213.22;;;32.15;29.75
72961;BME280;61141;46.204;19.774;2023-06-26T12:02:13;100213.00;;;32.08;29.73
72961;BME280;61141;46.204;19.774;2023-06-26T12:05:18;100204.25;;;32.00;31.46
72961;BME280;61141;46.204;19.774;2023-06-26T12:08:21;100207.47;;;32.32;30.47
72961;BME280;61141;46.204;19.774;2023-06-26T12:11:25;100207.44;;;31.58;30.58
72961;BME280;61141;46.204;19.774;2023-06-26T12:14:32;100203.25;;;31.86;31.39
72961;BME280;61141;46.204;19.774;2023-06-26T12:17:37;100203.78;;;31.85;30.86
72961;BME280;61141;46.204;19.774;2023-06-26T12:20:42;100205.31;;;30.69;32.60
72961;BME280;61141;46.204;19.774;2023-06-26T12:23:45;100200.69;;;30.72;32.07
72961;BME280;61141;46.204;19.774;2023-06-26T12:26:53;100201.22;;;30.70;31.59
72961;BME280;61141;46.204;19.774;2023-06-26T12:29:56;100200.94;;;29.93;32.85
72961;BME280;61141;46.204;19.774;2023-06-26T12:32:59;100202.59;;;30.27;33.04
72961;BME280;61141;46.204;19.774;2023-06-26T12:36:02;100192.50;;;31.35;31.66
72961;BME280;61141;46.204;19.774;2023-06-26T12:39:05;100192.09;;;30.33;32.23
72961;BME280;61141;46.204;19.774;2023-06-26T12:42:08;100197.81;;;30.50;33.23
72961;BME280;61141;46.204;19.774;2023-06-26T12:45:15;100196.81;;;29.94;32.93
72961;BME280;61141;46.204;19.774;2023-06-26T12:48:42;100205.44;;;29.37;33.88
72961;BME280;61141;46.204;19.774;2023-06-26T12:51:51;100200.72;;;29.59;33.54
72961;BME280;61141;46.204;19.774;2023-06-26T12:54:55;100187.25;;;29.43;34.15
72961;BME280;61141;46.204;19.774;2023-06-26T12:57:59;100189.34;;;29.48;34.04
72961;BME280;61141;46.204;19.774;2023-06-26T13:01:06;100193.19;;;29.20;34.25
72961;BME280;61141;46.204;19.774;2023-06-26T13:04:14;100194.09;;;28.54;34.61
72961;BME280;61141;46.204;19.774;2023-06-26T13:07:17;100193.84;;;28.78;35.72
72961;BME280;61141;46.204;19.774;2023-06-26T13:10:21;100178.81;;;28.86;35.62
72961;BME280;61141;46.204;19.774;2023-06-26T13:13:24;100178.38;;;28.68;36.21
72961;BME280;61141;46.204;19.774;2023-06-26T13:16:27;100175.87;;;28.49;36.04
72961;BME280;61141;46.204;19.774;2023-06-26T13:19:33;100187.62;;;28.68;35.94
72961;BME280;61141;46.204;19.774;2023-06-26T13:22:35;100187.41;;;29.03;35.52
72961;BME280;61141;46.204;19.774;2023-06-26T13:25:38;100182.97;;;29.53;33.97
72961;BME280;61141;46.204;19.774;2023-06-26T13:28:41;100175.13;;;30.33;32.35
72961;BME280;61141;46.204;19.774;2023-06-26T13:31:44;100152.87;;;30.91;30.55
72961;BME280;61141;46.204;19.774;2023-06-26T13:34:47;100154.69;;;31.27;30.36
72961;BME280;61141;46.204;19.774;2023-06-26T13:37:51;100168.34;;;31.23;31.79
72961;BME280;61141;46.204;19.774;2023-06-26T13:40:55;100161.38;;;31.24;29.79
72961;BME280;61141;46.204;19.774;2023-06-26T13:44:02;100163.72;;;31.14;30.60
72961;BME280;61141;46.204;19.774;2023-06-26T13:47:25;100157.00;;;31.56;30.39
72961;BME280;61141;46.204;19.774;2023-06-26T13:50:29;100153.06;;;31.76;29.32
72961;BME280;61141;46.204;19.774;2023-06-26T13:53:50;100149.84;;;32.13;30.05
72961;BME280;61141;46.204;19.774;2023-06-26T13:56:53;100158.38;;;32.07;31.02
72961;BME280;61141;46.204;19.774;2023-06-26T14:00:00;100142.75;;;31.78;29.79
72961;BME280;61141;46.204;19.774;2023-06-26T14:03:03;100142.59;;;30.76;31.96
72961;BME280;61141;46.204;19.774;2023-06-26T14:06:07;100143.09;;;31.30;30.61
72961;BME280;61141;46.204;19.774;2023-06-26T14:09:09;100142.06;;;32.19;29.51
72961;BME280;61141;46.204;19.774;2023-06-26T14:12:12;100134.56;;;31.58;29.82
72961;BME280;61141;46.204;19.774;2023-06-26T14:15:15;100149.81;;;31.00;31.40
72961;BME280;61141;46.204;19.774;2023-06-26T14:18:18;100116.56;;;31.45;30.68
72961;BME280;61141;46.204;19.774;2023-06-26T14:21:21;100139.38;;;31.85;30.65
72961;BME280;61141;46.204;19.774;2023-06-26T14:24:25;100118.63;;;31.44;30.43
72961;BME280;61141;46.204;19.774;2023-06-26T14:27:28;100143.06;;;31.41;29.61
72961;BME280;61141;46.204;19.774;2023-06-26T14:30:31;100133.66;;;31.96;29.19
72961;BME280;61141;46.204;19.774;2023-06-26T14:33:33;100141.09;;;32.57;28.48
72961;BME280;61141;46.204;19.774;2023-06-26T14:36:36;100133.31;;;32.63;29.25
72961;BME280;61141;46.204;19.774;2023-06-26T14:39:40;100140.78;;;32.20;28.84
72961;BME280;61141;46.204;19.774;2023-06-26T14:42:43;100137.59;;;31.71;30.66
72961;BME280;61141;46.204;19.774;2023-06-26T14:45:46;100137.19;;;30.90;32.30
72961;BME280;61141;46.204;19.774;2023-06-26T14:48:50;100135.41;;;30.92;33.79
72961;BME280;61141;46.204;19.774;2023-06-26T14:51:53;100121.91;;;30.15;34.07
72961;BME280;61141;46.204;19.774;2023-06-26T14:54:57;100128.69;;;30.90;32.79
72961;BME280;61141;46.204;19.774;2023-06-26T14:57:59;100126.66;;;31.12;31.78
72961;BME280;61141;46.204;19.774;2023-06-26T15:01:02;100129.19;;;31.27;32.25
72961;BME280;61141;46.204;19.774;2023-06-26T15:04:06;100130.72;;;31.56;31.87
72961;BME280;61141;46.204;19.774;2023-06-26T15:07:09;100128.22;;;32.04;31.07
72961;BME280;61141;46.204;19.774;2023-06-26T15:10:12;100131.63;;;31.91;33.41
72961;BME280;61141;46.204;19.774;2023-06-26T15:13:15;100123.00;;;32.19;30.85
72961;BME280;61141;46.204;19.774;2023-06-26T15:16:17;100117.78;;;31.66;30.10
72961;BME280;61141;46.204;19.774;2023-06-26T15:19:23;100117.28;;;31.67;29.12
72961;BME280;61141;46.204;19.774;2023-06-26T15:22:26;100126.97;;;32.40;29.67
72961;BME280;61141;46.204;19.774;2023-06-26T15:25:30;100106.66;;;31.79;29.22
72961;BME280;61141;46.204;19.774;2023-06-26T15:28:34;100103.81;;;31.84;29.32
72961;BME280;61141;46.204;19.774;2023-06-26T15:31:37;100110.06;;;32.24;29.88
72961;BME280;61141;46.204;19.774;2023-06-26T15:34:39;100118.25;;;32.38;29.17
72961;BME280;61141;46.204;19.774;2023-06-26T15:37:42;100107.75;;;32.28;28.49
72961;BME280;61141;46.204;19.774;2023-06-26T15:40:45;100095.34;;;31.73;29.21
72961;BME280;61141;46.204;19.774;2023-06-26T15:43:48;100096.78;;;32.43;28.62
72961;BME280;61141;46.204;19.774;2023-06-26T15:46:51;100114.78;;;32.10;28.67
72961;BME280;61141;46.204;19.774;2023-06-26T15:49:54;100100.34;;;31.56;28.72